sensor_id;sensor_type;location;lat;lon;timestamp;pressure;altitude;pressure_sealevel;temperature;humidity
61039;BME280;46919;45.816;3.104;2023-08-20T00:02:23;98129.03;;;23.39;83.33
61039;BME280;46919;45.816;3.104;2023-08-20T00:04:48;98132.38;;;23.36;83.75
61039;BME280;46919;45.816;3.104;2023-08-20T00:07:15;98137.69;;;23.32;83.38
61039;BME280;46919;45.816;3.104;2023-08-20T00:09:43;98130.72;;;23.21;84.62
61039;BME280;46919;45.816;3.104;2023-08-20T00:12:08;98131.94;;;23.15;84.98
61039;BME280;46919;45.816;3.104;2023-08-20T00:14:56;98135.78;;;23.14;85.19
61039;BME280;46919;45.816;3.104;2023-08-20T00:17:24;98122.09;;;23.09;85.24
61039;BME280;46919;45.816;3.104;2023-08-20T00:19:53;98124.09;;;23.03;85.39
61039;BME280;46919;45.816;3.104;2023-08-20T00:22:21;98121.13;;;23.00;85.84
61039;BME280;46919;45.816;3.104;2023-08-20T00:24:48;98123.66;;;22.96;86.31
61039;BME280;46919;45.816;3.104;2023-08-20T00:27:13;98128.44;;;22.90;86.65
61039;BME280;46919;45.816;3.104;2023-08-20T00:29:38;98121.13;;;22.80;87.38
61039;BME280;46919;45.816;3.104;2023-08-20T00:32:04;98117.66;;;22.75;87.47
61039;BME280;46919;45.816;3.104;2023-08-20T00:34:29;98124.50;;;22.77;88.08
61039;BME280;46919;45.816;3.104;2023-08-20T00:36:55;98118.16;;;22.77;87.88
61039;BME280;46919;45.816;3.104;2023-08-20T00:39:20;98125.47;;;22.68;88.29
61039;BME280;46919;45.816;3.104;2023-08-20T00:41:45;98125.56;;;22.63;89.01
61039;BME280;46919;45.816;3.104;2023-08-20T00:44:11;98121.44;;;22.60;89.05
61039;BME280;46919;45.816;3.104;2023-08-20T00:46:36;98119.28;;;22.57;89.17
61039;BME280;46919;45.816;3.104;2023-08-20T00:49:02;98120.41;;;22.56;88.91
61039;BME280;46919;45.816;3.104;2023-08-20T00:51:28;98121.75;;;22.58;89.21
61039;BME280;46919;45.816;3.104;2023-08-20T00:53:54;98122.41;;;22.50;89.89
61039;BME280;46919;45.816;3.104;2023-08-20T00:56:20;98120.34;;;22.42;90.50
61039;BME280;46919;45.816;3.104;2023-08-20T00:58:45;98127.25;;;22.39;90.93
61039;BME280;46919;45.816;3.104;2023-08-20T01:01:11;98133.00;;;22.43;90.38
61039;BME280;46919;45.816;3.104;2023-08-20T01:03:36;98137.06;;;22.46;90.46
61039;BME280;46919;45.816;3.104;2023-08-20T01:06:26;98134.19;;;22.37;91.33
61039;BME280;46919;45.816;3.104;2023-08-20T01:09:05;98140.06;;;22.30;91.09
61039;BME280;46919;45.816;3.104;2023-08-20T01:11:37;98133.16;;;22.28;91.71
61039;BME280;46919;45.816;3.104;2023-08-20T01:14:14;98133.72;;;22.30;91.51
61039;BME280;46919;45.816;3.104;2023-08-20T01:16:40;98135.91;;;22.28;91.78
61039;BME280;46919;45.816;3.104;2023-08-20T01:19:10;98136.59;;;22.19;92.21
61039;BME280;46919;45.816;3.104;2023-08-20T01:21:54;98133.91;;;22.14;92.47
61039;BME280;46919;45.816;3.104;2023-08-20T01:24:35;98142.09;;;22.19;92.51
61039;BME280;46919;45.816;3.104;2023-08-20T01:27:28;98148.25;;;22.11;93.37
61039;BME280;46919;45.816;3.104;2023-08-20T01:29:55;98141.75;;;22.02;93.96
61039;BME280;46919;45.816;3.104;2023-08-20T01:32:22;98148.94;;;21.98;94.41
61039;BME280;46919;45.816;3.104;2023-08-20T01:34:48;98147.06;;;21.93;94.81
61039;BME280;46919;45.816;3.104;2023-08-20T01:37:13;98157.28;;;21.93;94.99
61039;BME280;46919;45.816;3.104;2023-08-20T01:39:39;98161.69;;;21.88;95.22
61039;BME280;46919;45.816;3.104;2023-08-20T01:42:05;98160.66;;;21.84;95.36
61039;BME280;46919;45.816;3.104;2023-08-20T01:44:31;98168.91;;;21.84;95.63
61039;BME280;46919;45.816;3.104;2023-08-20T01:46:56;98165.59;;;21.87;95.71
61039;BME280;46919;45.816;3.104;2023-08-20T01:49:23;98167.78;;;21.85;95.66
61039;BME280;46919;45.816;3.104;2023-08-20T01:51:48;98163.94;;;21.86;95.94
61039;BME280;46919;45.816;3.104;2023-08-20T01:54:13;98160.66;;;21.84;96.19
61039;BME280;46919;45.816;3.104;2023-08-20T01:56:39;98165.16;;;21.75;96.81
61039;BME280;46919;45.816;3.104;2023-08-20T01:59:05;98167.41;;;21.73;96.97
61039;BME280;46919;45.816;3.104;2023-08-20T02:01:30;98167.41;;;21.68;97.33
61039;BME280;46919;45.816;3.104;2023-08-20T02:03:56;98158.94;;;21.64;97.71
61039;BME280;46919;45.816;3.104;2023-08-20T02:06:21;98166.44;;;21.59;97.69
61039;BME280;46919;45.816;3.104;2023-08-20T02:08:46;98171.97;;;21.53;97.98
61039;BME280;46919;45.816;3.104;2023-08-20T02:11:12;98175.59;;;21.49;98.51
61039;BME280;46919;45.816;3.104;2023-08-20T02:13:38;98173.09;;;21.47;98.40
61039;BME280;46919;45.816;3.104;2023-08-20T02:16:04;98177.78;;;21.47;98.18
61039;BME280;46919;45.816;3.104;2023-08-20T02:18:30;98176.75;;;21.43;98.15
61039;BME280;46919;45.816;3.104;2023-08-20T02:20:56;98177.31;;;21.40;98.97
61039;BME280;46919;45.816;3.104;2023-08-20T02:23:22;98177.03;;;21.36;99.04
61039;BME280;46919;45.816;3.104;2023-08-20T02:25:48;98182.84;;;21.34;99.25
61039;BME280;46919;45.816;3.104;2023-08-20T02:28:14;98176.81;;;21.32;99.26
61039;BME280;46919;45.816;3.104;2023-08-20T02:30:44;98178.19;;;21.35;99.36
61039;BME280;46919;45.816;3.104;2023-08-20T02:33:09;98172.97;;;21.33;98.88
61039;BME280;46919;45.816;3.104;2023-08-20T02:35:36;98174.34;;;21.31;99.54
61039;BME280;46919;45.816;3.104;2023-08-20T02:38:02;98182.66;;;21.26;99.81
61039;BME280;46919;45.816;3.104;2023-08-20T02:40:27;98170.00;;;21.25;100.00
61039;BME280;46919;45.816;3.104;2023-08-20T02:42:52;98173.31;;;21.22;100.00
61039;BME280;46919;45.816;3.104;2023-08-20T02:45:18;98170.09;;;21.14;100.00
61039;BME280;46919;45.816;3.104;2023-08-20T02:47:43;98177.25;;;21.10;100.00
61039;BME280;46919;45.816;3.104;2023-08-20T02:50:09;98175.66;;;21.04;100.00
61039;BME280;46919;45.816;3.104;2023-08-20T02:52:34;98177.88;;;21.02;100.00
61039;BME280;46919;45.816;3.104;2023-08-20T02:54:59;98174.06;;;20.98;100.00
61039;BME280;46919;45.816;3.104;2023-08-20T02:57:25;98173.75;;;20.99;100.00
61039;BME280;46919;45.816;3.104;2023-08-20T02:59:51;98176.84;;;20.93;100.00
61039;BME280;46919;45.816;3.104;2023-08-20T03:02:16;98175.47;;;20.90;100.00
61039;BME280;46919;45.816;3.104;2023-08-20T03:04:42;98169.16;;;20.90;100.00
61039;BME280;46919;45.816;3.104;2023-08-20T03:07:08;98168.13;;;20.86;100.00
61039;BME280;46919;45.816;3.104;2023-08-20T03:09:33;98174.72;;;20.85;100.00
61039;BME280;46919;45.816;3.104;2023-08-20T03:11:59;98182.94;;;20.85;100.00
61039;BME280;46919;45.816;3.104;2023-08-20T03:14:24;98186.53;;;20.80;100.00
61039;BME280;46919;45.816;3.104;2023-08-20T03:16:49;98180.81;;;20.76;100.00
61039;BME280;46919;45.816;3.104;2023-08-20T03:19:15;98187.69;;;20.74;100.00
61039;BME280;46919;45.816;3.104;2023-08-20T03:21:41;98176.97;;;20.72;100.00
61039;BME280;46919;45.816;3.104;2023-08-20T03:24:07;98185.78;;;20.69;100.00
61039;BME280;46919;45.816;3.104;2023-08-20T03:26:33;98186.06;;;20.68;100.00
61039;BME280;46919;45.816;3.104;2023-08-20T03:28:58;98183.06;;;20.64;100.00
61039;BME280;46919;45.816;3.104;2023-08-20T03:31:24;98179.22;;;20.60;100.00
61039;BME280;46919;45.816;3.104;2023-08-20T03:33:49;98185.81;;;20.59;100.00
61039;BME280;46919;45.816;3.104;2023-08-20T03:36:15;98179.81;;;20.52;100.00
61039;BME280;46919;45.816;3.104;2023-08-20T03:38:40;98179.84;;;20.47;100.00
61039;BME280;46919;45.816;3.104;2023-08-20T03:41:06;98183.69;;;20.45;100.00
61039;BME280;46919;45.816;3.104;2023-08-20T03:43:31;98186.44;;;20.45;100.00
61039;BME280;46919;45.816;3.104;2023-08-20T03:45:57;98189.44;;;20.44;100.00
61039;BME280;46919;45.816;3.104;2023-08-20T03:48:22;98184.25;;;20.42;100.00
61039;BME280;46919;45.816;3.104;2023-08-20T03:50:47;98185.94;;;20.38;100.00
61039;BME280;46919;45.816;3.104;2023-08-20T03:53:13;98190.84;;;20.36;100.00
61039;BME280;46919;45.816;3.104;2023-08-20T03:55:38;98190.31;;;20.34;100.00
61039;BME280;46919;45.816;3.104;2023-08-20T03:58:04;98197.47;;;20.35;100.00
61039;BME280;46919;45.816;3.104;2023-08-20T04:00:29;98198.81;;;20.43;100.00
61039;BME280;46919;45.816;3.104;2023-08-20T04:02:54;98197.47;;;20.35;100.00
61039;BME280;46919;45.816;3.104;2023-08-20T04:05:20;98202.44;;;20.28;100.00
61039;BME280;46919;45.816;3.104;2023-08-20T04:07:46;98210.66;;;20.28;100.00
61039;BME280;46919;45.816;3.104;2023-08-20T04:10:11;98204.06;;;20.29;100.00
61039;BME280;46919;45.816;3.104;2023-08-20T04:12:36;98203.81;;;20.31;100.00
61039;BME280;46919;45.816;3.104;2023-08-20T04:15:02;98206.28;;;20.27;100.00
61039;BME280;46919;45.816;3.104;2023-08-20T04:17:28;98209.88;;;20.22;100.00
61039;BME280;46919;45.816;3.104;2023-08-20T04:19:53;98212.88;;;20.16;100.00
61039;BME280;46919;45.816;3.104;2023-08-20T04:22:19;98221.16;;;20.11;100.00
61039;BME280;46919;45.816;3.104;2023-08-20T04:24:44;98217.34;;;20.06;100.00
61039;BME280;46919;45.816;3.104;2023-08-20T04:27:09;98212.69;;;19.97;100.00
61039;BME280;46919;45.816;3.104;2023-08-20T04:29:35;98222.28;;;19.99;100.00
61039;BME280;46919;45.816;3.104;2023-08-20T04:32:00;98223.91;;;20.05;100.00
61039;BME280;46919;45.816;3.104;2023-08-20T04:34:25;98222.78;;;20.17;100.00
61039;BME280;46919;45.816;3.104;2023-08-20T04:36:51;98232.13;;;20.11;100.00
61039;BME280;46919;45.816;3.104;2023-08-20T04:39:18;98235.72;;;20.01;100.00
61039;BME280;46919;45.816;3.104;2023-08-20T04:41:43;98231.34;;;19.95;100.00
61039;BME280;46919;45.816;3.104;2023-08-20T04:44:08;98232.75;;;19.92;100.00
61039;BME280;46919;45.816;3.104;2023-08-20T04:46:34;98231.91;;;19.91;100.00
61039;BME280;46919;45.816;3.104;2023-08-20T04:49:00;98233.00;;;19.96;100.00
61039;BME280;46919;45.816;3.104;2023-08-20T04:51:25;98235.75;;;19.90;100.00
61039;BME280;46919;45.816;3.104;2023-08-20T04:53:50;98234.94;;;19.85;100.00
61039;BME280;46919;45.816;3.104;2023-08-20T04:56:16;98229.97;;;19.87;100.00
61039;BME280;46919;45.816;3.104;2023-08-20T04:58:41;98231.63;;;19.88;100.00
61039;BME280;46919;45.816;3.104;2023-08-20T05:01:07;98231.91;;;19.86;100.00
61039;BME280;46919;45.816;3.104;2023-08-20T05:03:34;98229.72;;;19.83;100.00
61039;BME280;46919;45.816;3.104;2023-08-20T05:05:59;98225.59;;;19.81;100.00
61039;BME280;46919;45.816;3.104;2023-08-20T05:08:24;98233.56;;;19.82;100.00
61039;BME280;46919;45.816;3.104;2023-08-20T05:10:50;98234.94;;;19.85;100.00
61039;BME280;46919;45.816;3.104;2023-08-20T05:13:17;98235.47;;;19.87;100.00
61039;BME280;46919;45.816;3.104;2023-08-20T05:15:42;98230.53;;;19.84;100.00
61039;BME280;46919;45.816;3.104;2023-08-20T05:18:08;98231.66;;;19.83;100.00
61039;BME280;46919;45.816;3.104;2023-08-20T05:20:33;98236.88;;;19.84;100.00
61039;BME280;46919;45.816;3.104;2023-08-20T05:22:59;98237.94;;;19.88;100.00
61039;BME280;46919;45.816;3.104;2023-08-20T05:25:24;98230.53;;;19.94;100.00
61039;BME280;46919;45.816;3.104;2023-08-20T05:27:50;98239.28;;;20.01;100.00
61039;BME280;46919;45.816;3.104;2023-08-20T05:30:15;98236.81;;;20.05;100.00
61039;BME280;46919;45.816;3.104;2023-08-20T05:32:41;98234.06;;;20.05;100.00
61039;BME280;46919;45.816;3.104;2023-08-20T05:35:06;98240.63;;;20.09;100.00
61039;BME280;46919;45.816;3.104;2023-08-20T05:37:32;98236.81;;;20.10;100.00
61039;BME280;46919;45.816;3.104;2023-08-20T05:39:57;98232.41;;;20.09;100.00
61039;BME280;46919;45.816;3.104;2023-08-20T05:42:23;98249.97;;;20.13;100.00
61039;BME280;46919;45.816;3.104;2023-08-20T05:44:48;98244.19;;;20.20;100.00
61039;BME280;46919;45.816;3.104;2023-08-20T05:47:14;98250.75;;;20.24;100.00
61039;BME280;46919;45.816;3.104;2023-08-20T05:49:39;98251.81;;;20.33;100.00
61039;BME280;46919;45.816;3.104;2023-08-20T05:52:04;98248.50;;;20.41;100.00
61039;BME280;46919;45.816;3.104;2023-08-20T05:54:30;98257.22;;;20.54;100.00
61039;BME280;46919;45.816;3.104;2023-08-20T05:56:57;98255.00;;;20.61;100.00
61039;BME280;46919;45.816;3.104;2023-08-20T05:59:23;98253.38;;;20.65;100.00
61039;BME280;46919;45.816;3.104;2023-08-20T06:01:48;98259.38;;;20.72;100.00
61039;BME280;46919;45.816;3.104;2023-08-20T06:04:14;98253.00;;;20.87;100.00
61039;BME280;46919;45.816;3.104;2023-08-20T06:06:39;98257.59;;;20.92;100.00
61039;BME280;46919;45.816;3.104;2023-08-20T06:09:05;98255.94;;;20.96;100.00
61039;BME280;46919;45.816;3.104;2023-08-20T06:11:31;98251.53;;;21.00;100.00
61039;BME280;46919;45.816;3.104;2023-08-20T06:13:56;98252.59;;;21.04;100.00
61039;BME280;46919;45.816;3.104;2023-08-20T06:16:22;98255.31;;;21.09;100.00
61039;BME280;46919;45.816;3.104;2023-08-20T06:18:47;98255.25;;;21.20;100.00
61039;BME280;46919;45.816;3.104;2023-08-20T06:21:13;98244.75;;;21.27;100.00
61039;BME280;46919;45.816;3.104;2023-08-20T06:23:38;98251.25;;;21.41;100.00
61039;BME280;46919;45.816;3.104;2023-08-20T06:26:04;98247.88;;;21.55;100.00
61039;BME280;46919;45.816;3.104;2023-08-20T06:28:29;98254.41;;;21.64;100.00
61039;BME280;46919;45.816;3.104;2023-08-20T06:30:55;98254.00;;;21.76;100.00
61039;BME280;46919;45.816;3.104;2023-08-20T06:33:21;98257.19;;;21.88;100.00
61039;BME280;46919;45.816;3.104;2023-08-20T06:35:46;98252.72;;;21.97;100.00
61039;BME280;46919;45.816;3.104;2023-08-20T06:38:12;98254.00;;;22.05;99.93
61039;BME280;46919;45.816;3.104;2023-08-20T06:40:37;98245.63;;;22.15;99.58
61039;BME280;46919;45.816;3.104;2023-08-20T06:43:03;98259.28;;;22.25;99.33
61039;BME280;46919;45.816;3.104;2023-08-20T06:45:29;98255.97;;;22.29;98.21
61039;BME280;46919;45.816;3.104;2023-08-20T06:47:54;98257.00;;;22.38;97.40
61039;BME280;46919;45.816;3.104;2023-08-20T06:50:19;98260.41;;;22.49;96.54
61039;BME280;46919;45.816;3.104;2023-08-20T06:52:45;98260.59;;;22.57;96.20
61039;BME280;46919;45.816;3.104;2023-08-20T06:55:10;98263.88;;;22.59;96.15
61039;BME280;46919;45.816;3.104;2023-08-20T06:57:36;98268.78;;;22.63;95.74
61039;BME280;46919;45.816;3.104;2023-08-20T07:00:01;98275.38;;;22.67;95.66
61039;BME280;46919;45.816;3.104;2023-08-20T07:02:29;98278.13;;;22.67;95.14
61039;BME280;46919;45.816;3.104;2023-08-20T07:04:55;98271.47;;;22.68;95.63
61039;BME280;46919;45.816;3.104;2023-08-20T07:07:20;98276.41;;;22.71;95.57
61039;BME280;46919;45.816;3.104;2023-08-20T07:09:46;98274.41;;;22.76;95.22
61039;BME280;46919;45.816;3.104;2023-08-20T07:12:11;98274.63;;;22.80;95.66
61039;BME280;46919;45.816;3.104;2023-08-20T07:14:36;98282.78;;;22.90;95.63
61039;BME280;46919;45.816;3.104;2023-08-20T07:17:02;98276.34;;;22.95;95.27
61039;BME280;46919;45.816;3.104;2023-08-20T07:19:28;98278.22;;;23.00;94.63
61039;BME280;46919;45.816;3.104;2023-08-20T07:21:54;98279.34;;;22.98;94.01
61039;BME280;46919;45.816;3.104;2023-08-20T07:24:19;98275.41;;;23.05;94.66
61039;BME280;46919;45.816;3.104;2023-08-20T07:26:50;98273.41;;;23.10;93.35
61039;BME280;46919;45.816;3.104;2023-08-20T07:29:16;98265.91;;;23.16;93.27
61039;BME280;46919;45.816;3.104;2023-08-20T07:31:41;98274.09;;;23.21;92.65
61039;BME280;46919;45.816;3.104;2023-08-20T07:34:07;98268.59;;;23.21;91.99
61039;BME280;46919;45.816;3.104;2023-08-20T07:36:32;98267.81;;;23.34;91.97
61039;BME280;46919;45.816;3.104;2023-08-20T07:38:59;98280.94;;;23.43;90.80
61039;BME280;46919;45.816;3.104;2023-08-20T07:41:24;98273.31;;;23.54;90.00
61039;BME280;46919;45.816;3.104;2023-08-20T07:43:50;98274.56;;;23.61;90.09
61039;BME280;46919;45.816;3.104;2023-08-20T07:46:15;98277.72;;;23.55;88.60
61039;BME280;46919;45.816;3.104;2023-08-20T07:48:41;98273.00;;;23.55;88.64
61039;BME280;46919;45.816;3.104;2023-08-20T07:51:07;98273.75;;;23.61;88.84
61039;BME280;46919;45.816;3.104;2023-08-20T07:53:33;98271.66;;;23.72;88.81
61039;BME280;46919;45.816;3.104;2023-08-20T07:55:59;98268.91;;;23.72;88.60
61039;BME280;46919;45.816;3.104;2023-08-20T07:58:25;98268.00;;;23.76;88.74
61039;BME280;46919;45.816;3.104;2023-08-20T08:00:50;98275.88;;;23.83;87.94
61039;BME280;46919;45.816;3.104;2023-08-20T08:03:16;98283.19;;;23.93;87.53
61039;BME280;46919;45.816;3.104;2023-08-20T08:05:48;98278.81;;;24.05;87.00
61039;BME280;46919;45.816;3.104;2023-08-20T08:08:18;98280.56;;;24.15;85.74
61039;BME280;46919;45.816;3.104;2023-08-20T08:10:44;98282.84;;;24.27;85.50
61039;BME280;46919;45.816;3.104;2023-08-20T08:13:14;98283.03;;;24.31;84.42
61039;BME280;46919;45.816;3.104;2023-08-20T08:15:40;98287.66;;;24.35;83.77
61039;BME280;46919;45.816;3.104;2023-08-20T08:18:06;98285.81;;;24.45;83.38
61039;BME280;46919;45.816;3.104;2023-08-20T08:20:32;98292.78;;;24.56;85.34
61039;BME280;46919;45.816;3.104;2023-08-20T08:22:57;98286.75;;;24.68;84.17
61039;BME280;46919;45.816;3.104;2023-08-20T08:25:22;98280.84;;;24.74;84.40
61039;BME280;46919;45.816;3.104;2023-08-20T08:27:48;98278.75;;;24.80;83.77
61039;BME280;46919;45.816;3.104;2023-08-20T08:30:14;98275.50;;;24.92;82.99
61039;BME280;46919;45.816;3.104;2023-08-20T08:32:40;98274.88;;;24.95;81.17
61039;BME280;46919;45.816;3.104;2023-08-20T08:35:06;98280.41;;;24.95;81.24
61039;BME280;46919;45.816;3.104;2023-08-20T08:37:31;98283.03;;;25.14;81.45
61039;BME280;46919;45.816;3.104;2023-08-20T08:39:57;98283.22;;;25.18;80.81
61039;BME280;46919;45.816;3.104;2023-08-20T08:42:23;98282.59;;;25.21;80.08
61039;BME280;46919;45.816;3.104;2023-08-20T08:44:50;98280.75;;;25.30;78.66
61039;BME280;46919;45.816;3.104;2023-08-20T08:47:16;98285.81;;;25.51;78.18
61039;BME280;46919;45.816;3.104;2023-08-20T08:49:44;98284.03;;;25.55;78.79
61039;BME280;46919;45.816;3.104;2023-08-20T08:52:11;98287.41;;;25.52;78.87
61039;BME280;46919;45.816;3.104;2023-08-20T08:54:37;98281.78;;;25.57;77.41
61039;BME280;46919;45.816;3.104;2023-08-20T08:57:02;98278.13;;;25.70;77.94
61039;BME280;46919;45.816;3.104;2023-08-20T08:59:28;98273.81;;;25.86;77.86
61039;BME280;46919;45.816;3.104;2023-08-20T09:01:54;98279.75;;;25.94;76.18
61039;BME280;46919;45.816;3.104;2023-08-20T09:04:22;98285.66;;;26.01;77.96
61039;BME280;46919;45.816;3.104;2023-08-20T09:06:49;98273.19;;;26.12;75.92
61039;BME280;46919;45.816;3.104;2023-08-20T09:09:16;98277.75;;;26.17;75.26
61039;BME280;46919;45.816;3.104;2023-08-20T09:11:42;98270.84;;;26.28;74.06
61039;BME280;46919;45.816;3.104;2023-08-20T09:14:08;98266.44;;;26.36;74.37
61039;BME280;46919;45.816;3.104;2023-08-20T09:16:36;98278.25;;;26.50;75.68
61039;BME280;46919;45.816;3.104;2023-08-20T09:19:02;98269.88;;;26.73;74.54
61039;BME280;46919;45.816;3.104;2023-08-20T09:21:28;98267.59;;;26.75;72.91
61039;BME280;46919;45.816;3.104;2023-08-20T09:23:55;98265.16;;;26.82;72.51
61039;BME280;46919;45.816;3.104;2023-08-20T09:26:21;98261.75;;;26.85;72.58
61039;BME280;46919;45.816;3.104;2023-08-20T09:28:47;98267.94;;;26.91;72.30
61039;BME280;46919;45.816;3.104;2023-08-20T09:31:14;98256.56;;;27.01;70.46
61039;BME280;46919;45.816;3.104;2023-08-20T09:34:11;98260.31;;;27.14;71.12
61039;BME280;46919;45.816;3.104;2023-08-20T09:36:37;98258.84;;;27.25;70.44
61039;BME280;46919;45.816;3.104;2023-08-20T09:39:04;98257.72;;;27.35;69.37
61039;BME280;46919;45.816;3.104;2023-08-20T09:41:29;98256.94;;;27.35;68.59
61039;BME280;46919;45.816;3.104;2023-08-20T09:43:57;98257.56;;;27.32;69.87
61039;BME280;46919;45.816;3.104;2023-08-20T09:46:24;98245.47;;;27.27;70.54
61039;BME280;46919;45.816;3.104;2023-08-20T09:48:51;98250.53;;;27.52;70.28
61039;BME280;46919;45.816;3.104;2023-08-20T09:51:28;98256.06;;;27.69;68.90
61039;BME280;46919;45.816;3.104;2023-08-20T09:58:53;98250.97;;;27.80;66.18
61039;BME280;46919;45.816;3.104;2023-08-20T10:01:19;98252.94;;;27.79;66.40
61039;BME280;46919;45.816;3.104;2023-08-20T10:03:45;98260.63;;;28.00;65.16
61039;BME280;46919;45.816;3.104;2023-08-20T10:06:11;98248.53;;;27.87;65.29
61039;BME280;46919;45.816;3.104;2023-08-20T10:08:37;98260.25;;;27.93;66.43
61039;BME280;46919;45.816;3.104;2023-08-20T10:11:03;98259.22;;;28.24;65.79
61039;BME280;46919;45.816;3.104;2023-08-20T10:13:29;98267.19;;;28.34;64.60
61039;BME280;46919;45.816;3.104;2023-08-20T10:15:54;98258.63;;;28.48;63.70
61039;BME280;46919;45.816;3.104;2023-08-20T10:18:21;98263.53;;;28.51;63.35
61039;BME280;46919;45.816;3.104;2023-08-20T10:20:50;98256.03;;;28.43;63.23
61039;BME280;46919;45.816;3.104;2023-08-20T10:23:20;98253.16;;;28.30;63.69
61039;BME280;46919;45.816;3.104;2023-08-20T10:25:48;98266.78;;;28.53;66.21
61039;BME280;46919;45.816;3.104;2023-08-20T10:28:20;98264.66;;;28.88;64.53
61039;BME280;46919;45.816;3.104;2023-08-20T10:31:05;98257.78;;;28.86;63.68
61039;BME280;46919;45.816;3.104;2023-08-20T10:33:36;98245.19;;;28.88;63.60
61039;BME280;46919;45.816;3.104;2023-08-20T10:36:28;98249.28;;;29.12;61.36
61039;BME280;46919;45.816;3.104;2023-08-20T10:38:54;98245.66;;;29.12;62.26
61039;BME280;46919;45.816;3.104;2023-08-20T10:41:27;98243.44;;;29.26;62.22
61039;BME280;46919;45.816;3.104;2023-08-20T10:43:57;98246.19;;;29.35;61.27
61039;BME280;46919;45.816;3.104;2023-08-20T10:46:23;98244.13;;;29.44;61.06
61039;BME280;46919;45.816;3.104;2023-08-20T10:51:27;98240.00;;;29.62;61.05
61039;BME280;46919;45.816;3.104;2023-08-20T10:54:11;98236.44;;;29.62;58.59
61039;BME280;46919;45.816;3.104;2023-08-20T10:56:55;98229.03;;;29.66;59.44
61039;BME280;46919;45.816;3.104;2023-08-20T10:59:29;98226.25;;;29.66;59.20
61039;BME280;46919;45.816;3.104;2023-08-20T11:01:57;98225.13;;;29.79;58.86
61039;BME280;46919;45.816;3.104;2023-08-20T11:04:30;98222.28;;;30.01;58.00
61039;BME280;46919;45.816;3.104;2023-08-20T11:06:59;98215.66;;;30.05;56.49
61039;BME280;46919;45.816;3.104;2023-08-20T11:09:30;98216.13;;;29.95;57.85
61039;BME280;46919;45.816;3.104;2023-08-20T11:11:56;98210.56;;;30.07;58.01
61039;BME280;46919;45.816;3.104;2023-08-20T11:14:23;98206.13;;;29.94;56.15
61039;BME280;46919;45.816;3.104;2023-08-20T11:16:48;98208.88;;;29.81;56.87
61039;BME280;46919;45.816;3.104;2023-08-20T11:19:15;98202.84;;;29.79;56.66
61039;BME280;46919;45.816;3.104;2023-08-20T11:21:44;98208.47;;;30.04;57.71
61039;BME280;46919;45.816;3.104;2023-08-20T11:24:10;98204.78;;;30.25;55.56
61039;BME280;46919;45.816;3.104;2023-08-20T11:26:39;98197.09;;;30.34;55.45
61039;BME280;46919;45.816;3.104;2023-08-20T11:29:08;98211.53;;;30.61;56.75
61039;BME280;46919;45.816;3.104;2023-08-20T11:31:35;98199.19;;;30.74;56.25
61039;BME280;46919;45.816;3.104;2023-08-20T11:34:02;98204.38;;;30.88;56.42
61039;BME280;46919;45.816;3.104;2023-08-20T11:36:28;98202.53;;;30.80;54.63
61039;BME280;46919;45.816;3.104;2023-08-20T11:38:54;98190.78;;;30.86;52.60
61039;BME280;46919;45.816;3.104;2023-08-20T11:41:20;98193.81;;;30.94;52.11
61039;BME280;46919;45.816;3.104;2023-08-20T11:43:47;98192.25;;;31.09;52.26
61039;BME280;46919;45.816;3.104;2023-08-20T11:46:14;98181.28;;;31.28;51.62
61039;BME280;46919;45.816;3.104;2023-08-20T11:51:27;98193.00;;;31.34;53.13
61039;BME280;46919;45.816;3.104;2023-08-20T11:53:52;98178.53;;;31.44;52.69
61039;BME280;46919;45.816;3.104;2023-08-20T11:56:17;98171.75;;;31.45;50.80
61039;BME280;46919;45.816;3.104;2023-08-20T11:58:43;98175.66;;;31.12;50.21
61039;BME280;46919;45.816;3.104;2023-08-20T12:01:08;98175.47;;;31.21;50.83
61039;BME280;46919;45.816;3.104;2023-08-20T12:03:34;98176.88;;;31.55;49.84
61039;BME280;46919;45.816;3.104;2023-08-20T12:05:59;98171.41;;;31.75;48.95
61039;BME280;46919;45.816;3.104;2023-08-20T12:08:38;98168.28;;;32.24;48.19
61039;BME280;46919;45.816;3.104;2023-08-20T12:11:04;98162.28;;;32.42;46.83
61039;BME280;46919;45.816;3.104;2023-08-20T12:13:29;98154.88;;;32.65;45.84
61039;BME280;46919;45.816;3.104;2023-08-20T12:15:55;98164.78;;;32.79;47.48
61039;BME280;46919;45.816;3.104;2023-08-20T12:18:20;98153.28;;;33.03;45.57
61039;BME280;46919;45.816;3.104;2023-08-20T12:20:45;98155.81;;;33.09;46.70
61039;BME280;46919;45.816;3.104;2023-08-20T12:23:12;98156.94;;;33.24;45.56
61039;BME280;46919;45.816;3.104;2023-08-20T12:25:37;98148.16;;;33.25;44.39
61039;BME280;46919;45.816;3.104;2023-08-20T12:28:04;98138.25;;;33.12;42.95
61039;BME280;46919;45.816;3.104;2023-08-20T12:30:31;98151.28;;;33.20;41.76
61039;BME280;46919;45.816;3.104;2023-08-20T12:32:56;98144.63;;;33.28;42.64
61039;BME280;46919;45.816;3.104;2023-08-20T12:35:22;98142.09;;;33.43;40.97
61039;BME280;46919;45.816;3.104;2023-08-20T12:37:47;98149.97;;;33.37;42.58
61039;BME280;46919;45.816;3.104;2023-08-20T12:40:13;98152.69;;;33.53;44.74
61039;BME280;46919;45.816;3.104;2023-08-20T12:42:39;98139.66;;;33.84;42.43
61039;BME280;46919;45.816;3.104;2023-08-20T12:45:08;98134.16;;;33.91;40.44
61039;BME280;46919;45.816;3.104;2023-08-20T12:47:36;98141.09;;;33.97;41.15
61039;BME280;46919;45.816;3.104;2023-08-20T12:50:02;98135.94;;;33.99;39.92
61039;BME280;46919;45.816;3.104;2023-08-20T12:52:29;98137.53;;;34.00;39.55
61039;BME280;46919;45.816;3.104;2023-08-20T12:54:55;98130.44;;;34.06;38.34
61039;BME280;46919;45.816;3.104;2023-08-20T12:57:20;98126.31;;;34.00;38.58
61039;BME280;46919;45.816;3.104;2023-08-20T12:59:46;98116.31;;;33.99;37.68
61039;BME280;46919;45.816;3.104;2023-08-20T13:02:11;98116.91;;;34.12;37.85
61039;BME280;46919;45.816;3.104;2023-08-20T13:04:37;98115.28;;;34.11;36.44
61039;BME280;46919;45.816;3.104;2023-08-20T13:07:03;98118.50;;;34.13;36.46